Time;durP1;ratioP1;P1;durP2;ratioP2;P2;SDS_P1;SDS_P2;PMS_P1;PMS_P2;Temp;Humidity;BMP_temperature;BMP_pressure;BME280_temperature;BME280_humidity;BME280_pressure;Samples;Min_cycle;Max_cycle;Signal;HPM_P1;HPM_P2
2021/12/08 00:01:50;;;;;;;7.28;4.13;;;;;;;;;;5080723;28;20052;-48
2021/12/08 00:04:16;;;;;;;10.80;3.20;;;;;;;;;;5082955;28;20444;-45
2021/12/08 00:06:41;;;;;;;9.48;3.22;;;;;;;;;;5079017;28;20036;-48
2021/12/08 00:10:15;;;;;;;8.68;3.60;;;;;;;;;;5079839;28;20499;-46
2021/12/08 00:14:47;;;;;;;5.65;2.92;;;;;;;;;;5079411;28;20094;-45
2021/12/08 00:17:13;;;;;;;11.38;2.83;;;;;;;;;;5081180;28;20032;-45
2021/12/08 00:19:38;;;;;;;4.75;2.70;;;;;;;;;;5080012;28;20143;-47
2021/12/08 00:22:04;;;;;;;7.07;2.88;;;;;;;;;;5078939;28;20024;-48
2021/12/08 00:24:30;;;;;;;6.03;2.53;;;;;;;;;;5077089;28;20041;-46
2021/12/08 00:26:56;;;;;;;4.93;2.40;;;;;;;;;;5076588;28;20382;-48
2021/12/08 00:29:22;;;;;;;5.20;2.75;;;;;;;;;;5076277;28;20527;-48
2021/12/08 00:31:48;;;;;;;7.13;2.80;;;;;;;;;;5076628;28;20020;-51
2021/12/08 00:34:14;;;;;;;4.95;2.72;;;;;;;;;;5078036;28;20032;-46
2021/12/08 00:36:47;;;;;;;3.58;2.30;;;;;;;;;;5075529;28;20020;-46
2021/12/08 00:39:13;;;;;;;4.22;3.10;;;;;;;;;;5087860;28;20047;-54
2021/12/08 00:41:40;;;;;;;5.45;2.85;;;;;;;;;;5078066;28;20028;-49
2021/12/08 00:44:07;;;;;;;4.47;2.50;;;;;;;;;;5081127;28;20026;-49
2021/12/08 00:46:33;;;;;;;6.75;2.50;;;;;;;;;;5081152;28;20063;-48
2021/12/08 00:48:58;;;;;;;3.72;2.28;;;;;;;;;;5079459;28;20377;-46
2021/12/08 00:51:25;;;;;;;6.20;2.65;;;;;;;;;;5080709;28;20033;-46
2021/12/08 00:53:50;;;;;;;3.40;2.38;;;;;;;;;;5082064;28;20112;-47
2021/12/08 00:56:17;;;;;;;9.77;2.90;;;;;;;;;;5084155;28;20070;-49
2021/12/08 00:58:43;;;;;;;5.55;2.85;;;;;;;;;;5081959;28;20036;-46
2021/12/08 01:01:09;;;;;;;6.57;2.70;;;;;;;;;;5075407;28;20462;-47
2021/12/08 01:03:36;;;;;;;4.60;2.42;;;;;;;;;;5072967;28;20033;-46
2021/12/08 01:06:04;;;;;;;5.88;2.80;;;;;;;;;;5084102;28;20036;-51
2021/12/08 01:08:31;;;;;;;4.78;3.03;;;;;;;;;;5076628;28;20392;-51
2021/12/08 01:11:01;;;;;;;4.32;2.38;;;;;;;;;;5077733;28;20032;-46
2021/12/08 01:13:27;;;;;;;6.15;2.40;;;;;;;;;;5082495;28;20024;-47
2021/12/08 01:15:55;;;;;;;4.45;2.50;;;;;;;;;;5080369;28;20032;-53
2021/12/08 01:18:22;;;;;;;4.15;2.25;;;;;;;;;;5075226;28;20123;-48
2021/12/08 01:20:48;;;;;;;3.53;2.45;;;;;;;;;;5081604;28;20634;-46
2021/12/08 01:23:15;;;;;;;4.68;2.50;;;;;;;;;;5075267;28;20123;-49
2021/12/08 01:25:41;;;;;;;3.83;2.42;;;;;;;;;;5076564;28;20048;-52
2021/12/08 01:28:07;;;;;;;4.38;2.70;;;;;;;;;;5076084;28;20023;-49
2021/12/08 01:30:33;;;;;;;6.40;2.80;;;;;;;;;;5076892;28;20369;-48
2021/12/08 01:32:59;;;;;;;6.38;2.50;;;;;;;;;;5076066;28;20060;-48
2021/12/08 01:35:26;;;;;;;3.25;2.90;;;;;;;;;;5079293;28;20056;-47
2021/12/08 01:37:52;;;;;;;6.78;2.45;;;;;;;;;;5076196;28;20086;-49
2021/12/08 01:40:18;;;;;;;4.82;2.50;;;;;;;;;;5076967;28;20055;-46
2021/12/08 01:42:47;;;;;;;5.07;2.45;;;;;;;;;;5077273;28;20223;-46
2021/12/08 01:48:05;;;;;;;4.30;2.30;;;;;;;;;;5070982;28;20068;-46
2021/12/08 01:50:31;;;;;;;4.72;2.40;;;;;;;;;;5080037;28;20490;-46
2021/12/08 01:52:57;;;;;;;4.57;2.08;;;;;;;;;;5074950;28;20500;-47
2021/12/08 01:55:23;;;;;;;3.55;2.38;;;;;;;;;;5080721;28;20040;-47
2021/12/08 01:57:49;;;;;;;3.40;1.80;;;;;;;;;;5073968;28;20037;-47
2021/12/08 02:00:40;;;;;;;4.40;2.50;;;;;;;;;;5074131;28;20040;-51
2021/12/08 02:03:07;;;;;;;2.30;1.92;;;;;;;;;;5077507;28;20091;-49
2021/12/08 02:05:33;;;;;;;2.17;1.95;;;;;;;;;;5077361;28;20033;-47
2021/12/08 02:07:59;;;;;;;3.38;1.88;;;;;;;;;;5077899;28;20027;-50
2021/12/08 02:10:25;;;;;;;3.03;1.80;;;;;;;;;;5083116;28;20127;-49
2021/12/08 02:12:51;;;;;;;3.38;1.92;;;;;;;;;;5072061;28;20052;-46
2021/12/08 02:15:17;;;;;;;2.45;1.77;;;;;;;;;;5073415;28;20461;-46
2021/12/08 02:17:50;;;;;;;4.30;1.30;;;;;;;;;;5076496;28;20042;-47
2021/12/08 02:20:17;;;;;;;3.17;1.70;;;;;;;;;;5075230;28;20036;-46
2021/12/08 02:22:43;;;;;;;1.65;1.55;;;;;;;;;;5076188;28;21031;-46
2021/12/08 02:25:11;;;;;;;6.95;1.90;;;;;;;;;;5074372;28;20118;-45
2021/12/08 02:27:37;;;;;;;1.35;1.25;;;;;;;;;;5074747;28;20033;-46
2021/12/08 02:30:23;;;;;;;2.53;1.25;;;;;;;;;;5079579;28;20039;-45
2021/12/08 02:46:47;;;;;;;2.63;1.00;;;;;;;;;;5079331;28;20060;-49
2021/12/08 02:49:13;;;;;;;2.20;1.17;;;;;;;;;;5079442;28;20045;-47
2021/12/08 02:51:42;;;;;;;1.60;1.13;;;;;;;;;;5077409;28;20036;-46
2021/12/08 02:54:08;;;;;;;0.90;0.90;;;;;;;;;;5079235;28;20040;-46
2021/12/08 02:56:34;;;;;;;2.42;1.00;;;;;;;;;;5077395;28;20055;-46
2021/12/08 02:59:00;;;;;;;1.85;1.10;;;;;;;;;;5080431;28;20465;-47
2021/12/08 03:01:28;;;;;;;2.28;1.10;;;;;;;;;;5083623;28;20032;-46
2021/12/08 03:03:53;;;;;;;1.23;1.17;;;;;;;;;;5086225;28;20032;-45
2021/12/08 03:06:20;;;;;;;1.13;0.95;;;;;;;;;;5074123;28;20488;-47
2021/12/08 03:08:47;;;;;;;0.85;0.75;;;;;;;;;;5083115;28;20126;-46
2021/12/08 03:11:13;;;;;;;2.08;1.20;;;;;;;;;;5076314;28;20044;-49
2021/12/08 03:13:56;;;;;;;1.15;1.05;;;;;;;;;;5082738;28;20039;-48
2021/12/08 03:16:22;;;;;;;1.00;0.98;;;;;;;;;;5073492;28;20515;-48
2021/12/08 03:18:48;;;;;;;0.70;0.70;;;;;;;;;;5082420;28;20067;-47
2021/12/08 03:21:13;;;;;;;0.80;0.80;;;;;;;;;;5077651;28;20095;-48
2021/12/08 03:26:49;;;;;;;1.25;0.90;;;;;;;;;;5023649;28;20496;-46
2021/12/08 03:29:22;;;;;;;0.70;0.70;;;;;;;;;;5018459;28;20048;-50
2021/12/08 03:31:51;;;;;;;3.60;0.90;;;;;;;;;;5016230;28;20041;-48
2021/12/08 03:34:20;;;;;;;4.78;1.05;;;;;;;;;;5012234;28;20033;-46
2021/12/08 03:36:46;;;;;;;3.60;1.00;;;;;;;;;;5017743;28;20243;-48
2021/12/08 03:39:12;;;;;;;4.47;0.90;;;;;;;;;;5012400;28;20029;-48
2021/12/08 03:41:38;;;;;;;2.90;1.13;;;;;;;;;;5020592;28;20041;-46
2021/12/08 03:44:05;;;;;;;1.63;1.20;;;;;;;;;;5015317;28;20517;-46
2021/12/08 03:46:38;;;;;;;1.38;1.23;;;;;;;;;;5022177;28;20030;-47
2021/12/08 03:49:06;;;;;;;1.10;1.00;;;;;;;;;;5013610;28;20053;-46
2021/12/08 03:51:32;;;;;;;0.82;0.82;;;;;;;;;;5015266;28;20029;-46
2021/12/08 03:53:57;;;;;;;0.80;0.80;;;;;;;;;;5016171;28;20915;-46
2021/12/08 03:56:23;;;;;;;1.10;1.00;;;;;;;;;;5023148;28;20471;-46
2021/12/08 03:58:49;;;;;;;1.23;1.13;;;;;;;;;;5022409;28;20553;-46
2021/12/08 04:01:15;;;;;;;1.23;1.05;;;;;;;;;;5023750;28;20033;-47
2021/12/08 04:03:48;;;;;;;3.92;0.85;;;;;;;;;;5081300;28;20032;-47
2021/12/08 04:06:27;;;;;;;0.75;0.60;;;;;;;;;;5081014;28;20075;-46
2021/12/08 04:08:56;;;;;;;0.70;0.70;;;;;;;;;;5074236;28;20047;-50
2021/12/08 04:11:23;;;;;;;0.60;0.60;;;;;;;;;;5075680;28;20485;-48
2021/12/08 04:14:00;;;;;;;0.50;0.40;;;;;;;;;;5080308;28;20039;-49
2021/12/08 04:16:39;;;;;;;0.70;0.50;;;;;;;;;;5079161;28;20074;-49
2021/12/08 04:19:07;;;;;;;1.10;0.70;;;;;;;;;;5084244;28;20024;-47
2021/12/08 04:21:35;;;;;;;2.83;0.57;;;;;;;;;;5074825;28;20032;-47
2021/12/08 04:24:01;;;;;;;0.50;0.45;;;;;;;;;;5077361;28;20485;-47
2021/12/08 04:26:34;;;;;;;0.80;0.55;;;;;;;;;;5074327;28;20037;-47
2021/12/08 04:29:00;;;;;;;1.05;0.50;;;;;;;;;;5077557;28;20477;-49
2021/12/08 04:31:32;;;;;;;0.40;0.38;;;;;;;;;;5083032;28;20450;-49
2021/12/08 04:34:03;;;;;;;0.20;0.20;;;;;;;;;;5077569;28;20080;-47
2021/12/08 04:36:43;;;;;;;0.20;0.20;;;;;;;;;;5081283;28;20091;-47
2021/12/08 04:39:22;;;;;;;0.50;0.50;;;;;;;;;;5073860;28;20081;-49
2021/12/08 04:41:54;;;;;;;0.20;0.20;;;;;;;;;;5072298;28;20366;-46
2021/12/08 04:44:28;;;;;;;2.08;0.43;;;;;;;;;;5079148;28;20477;-47
2021/12/08 04:47:19;;;;;;;0.55;0.30;;;;;;;;;;5077859;28;20404;-46
2021/12/08 05:09:24;;;;;;;0.70;0.38;;;;;;;;;;5077237;28;20071;-49
2021/12/08 05:11:58;;;;;;;1.80;0.30;;;;;;;;;;5083839;28;20047;-49
2021/12/08 05:14:32;;;;;;;0.73;0.20;;;;;;;;;;5075365;28;20040;-50
2021/12/08 05:17:03;;;;;;;3.10;1.00;;;;;;;;;;5073245;28;20128;-51
2021/12/08 05:19:32;;;;;;;0.70;0.40;;;;;;;;;;5079768;28;20066;-47
2021/12/08 05:22:03;;;;;;;0.73;0.30;;;;;;;;;;5081642;28;20035;-47
2021/12/08 05:24:33;;;;;;;0.40;0.40;;;;;;;;;;5074342;28;20051;-47
2021/12/08 05:27:11;;;;;;;0.20;0.20;;;;;;;;;;5074978;28;20033;-46
2021/12/08 05:29:48;;;;;;;1.17;0.50;;;;;;;;;;5080533;28;20096;-49
2021/12/08 05:32:14;;;;;;;0.90;0.60;;;;;;;;;;5077532;28;20089;-46
2021/12/08 05:34:41;;;;;;;0.70;0.43;;;;;;;;;;5075026;28;20385;-52
2021/12/08 05:37:10;;;;;;;0.45;0.35;;;;;;;;;;5077844;28;20589;-47
2021/12/08 05:39:37;;;;;;;4.28;0.30;;;;;;;;;;5077583;28;20056;-51
2021/12/08 05:42:11;;;;;;;0.38;0.30;;;;;;;;;;5084527;28;20093;-49
2021/12/08 05:44:40;;;;;;;4.65;0.40;;;;;;;;;;5072370;28;20016;-50
2021/12/08 05:47:13;;;;;;;0.63;0.63;;;;;;;;;;5073188;28;20123;-50
2021/12/08 05:49:40;;;;;;;0.63;0.50;;;;;;;;;;5083117;28;20043;-47
2021/12/08 05:52:06;;;;;;;0.57;0.57;;;;;;;;;;5079501;28;20038;-47
2021/12/08 05:54:36;;;;;;;1.60;0.70;;;;;;;;;;5070494;28;20032;-47
2021/12/08 05:57:08;;;;;;;3.08;0.63;;;;;;;;;;5072369;28;20036;-48
2021/12/08 05:59:34;;;;;;;2.30;0.80;;;;;;;;;;5076660;28;20036;-50
2021/12/08 06:02:09;;;;;;;3.60;0.77;;;;;;;;;;5081761;28;20039;-46
2021/12/08 06:04:37;;;;;;;3.20;0.98;;;;;;;;;;5079035;28;20024;-49
2021/12/08 06:07:05;;;;;;;2.08;1.30;;;;;;;;;;5082275;28;20504;-51
2021/12/08 06:09:32;;;;;;;2.70;1.58;;;;;;;;;;5083163;28;20438;-47
2021/12/08 06:11:58;;;;;;;1.20;1.10;;;;;;;;;;5076836;28;20361;-49
2021/12/08 06:14:31;;;;;;;5.38;1.80;;;;;;;;;;5070660;28;20036;-54
2021/12/08 06:16:58;;;;;;;1.17;1.17;;;;;;;;;;5072266;28;20405;-51
2021/12/08 06:19:24;;;;;;;4.68;1.83;;;;;;;;;;5078806;28;20036;-49
2021/12/08 06:21:50;;;;;;;1.30;1.20;;;;;;;;;;5072578;28;20649;-49
2021/12/08 06:24:17;;;;;;;1.23;1.20;;;;;;;;;;5072797;28;20075;-50
2021/12/08 06:26:43;;;;;;;1.30;1.30;;;;;;;;;;5081785;28;20362;-46
2021/12/08 06:29:11;;;;;;;1.30;1.30;;;;;;;;;;5077644;28;20393;-54
2021/12/08 06:31:38;;;;;;;1.60;1.50;;;;;;;;;;5079569;28;20473;-53
2021/12/08 06:34:05;;;;;;;1.88;1.63;;;;;;;;;;5078416;28;20062;-54
2021/12/08 06:36:36;;;;;;;1.92;1.73;;;;;;;;;;5085241;28;20115;-46
2021/12/08 06:39:07;;;;;;;6.55;2.28;;;;;;;;;;5074678;28;20047;-52
2021/12/08 06:41:38;;;;;;;3.38;2.35;;;;;;;;;;5060617;28;20029;-50
2021/12/08 06:44:17;;;;;;;3.70;2.30;;;;;;;;;;5079864;28;20029;-51
2021/12/08 06:46:44;;;;;;;5.13;2.38;;;;;;;;;;5074607;28;20485;-53
2021/12/08 06:49:12;;;;;;;2.50;2.30;;;;;;;;;;5074823;28;21242;-47
2021/12/08 06:51:42;;;;;;;4.93;2.15;;;;;;;;;;5073495;28;20024;-54
2021/12/08 06:54:16;;;;;;;2.95;2.30;;;;;;;;;;5073474;28;20032;-48
2021/12/08 06:56:50;;;;;;;1.88;1.77;;;;;;;;;;5077094;28;20027;-49
2021/12/08 06:59:21;;;;;;;1.90;1.80;;;;;;;;;;5076906;28;20119;-48
2021/12/08 07:02:08;;;;;;;1.88;1.77;;;;;;;;;;5071519;28;20021;-52
2021/12/08 07:04:56;;;;;;;1.77;1.67;;;;;;;;;;5075394;28;20028;-53
2021/12/08 07:07:26;;;;;;;2.42;2.22;;;;;;;;;;5076035;28;20040;-48
2021/12/08 07:10:03;;;;;;;2.70;2.50;;;;;;;;;;5077342;28;20431;-47
2021/12/08 07:12:45;;;;;;;2.40;2.30;;;;;;;;;;5076372;28;20469;-53
2021/12/08 07:15:14;;;;;;;3.40;2.50;;;;;;;;;;5070125;28;20032;-49
2021/12/08 07:17:43;;;;;;;2.50;2.00;;;;;;;;;;5075548;28;20032;-50
2021/12/08 07:20:28;;;;;;;5.15;2.53;;;;;;;;;;5076069;28;20024;-50
2021/12/08 07:22:57;;;;;;;3.15;2.85;;;;;;;;;;5079898;28;20560;-55
2021/12/08 07:25:25;;;;;;;7.07;4.63;;;;;;;;;;5079963;28;20102;-51
2021/12/08 07:27:52;;;;;;;2.65;2.45;;;;;;;;;;5075902;28;20040;-51
2021/12/08 07:30:23;;;;;;;3.05;2.85;;;;;;;;;;5079556;28;20028;-53
2021/12/08 07:32:49;;;;;;;6.43;2.55;;;;;;;;;;5079555;28;20063;-49
2021/12/08 07:35:26;;;;;;;3.67;3.38;;;;;;;;;;5078605;28;20043;-50
2021/12/08 07:37:52;;;;;;;4.93;4.32;;;;;;;;;;5082393;28;20032;-52
2021/12/08 07:40:25;;;;;;;4.80;3.83;;;;;;;;;;5084892;28;20032;-49
2021/12/08 07:43:01;;;;;;;2.92;2.72;;;;;;;;;;5081406;28;20499;-55
2021/12/08 07:45:32;;;;;;;2.47;2.22;;;;;;;;;;5076444;28;20156;-51
2021/12/08 07:48:00;;;;;;;1.92;1.83;;;;;;;;;;5079534;28;20548;-50
2021/12/08 07:50:35;;;;;;;5.28;1.90;;;;;;;;;;5085320;28;20039;-50
2021/12/08 07:53:03;;;;;;;1.90;1.80;;;;;;;;;;5083027;28;20503;-54
2021/12/08 07:55:40;;;;;;;4.28;3.88;;;;;;;;;;5087151;28;20028;-50
2021/12/08 07:58:07;;;;;;;5.57;5.07;;;;;;;;;;5076149;28;20480;-54
2021/12/08 08:00:58;;;;;;;9.85;7.00;;;;;;;;;;5075758;28;20080;-54
2021/12/08 08:03:26;;;;;;;9.63;8.65;;;;;;;;;;5077471;28;20439;-54
2021/12/08 08:05:53;;;;;;;10.75;9.45;;;;;;;;;;5084014;28;20118;-52
2021/12/08 08:08:24;;;;;;;13.88;10.25;;;;;;;;;;5082629;28;20077;-53
2021/12/08 08:10:56;;;;;;;10.40;8.50;;;;;;;;;;5076795;28;20136;-48
2021/12/08 08:13:23;;;;;;;4.35;3.95;;;;;;;;;;5079096;28;20036;-54
2021/12/08 08:15:54;;;;;;;3.05;2.85;;;;;;;;;;5073490;28;20032;-50
2021/12/08 08:18:25;;;;;;;2.55;2.05;;;;;;;;;;5109339;27;20036;-51
2021/12/08 08:20:53;;;;;;;2.10;1.95;;;;;;;;;;5079221;28;20067;-52
2021/12/08 08:23:22;;;;;;;2.60;2.40;;;;;;;;;;5072730;28;20024;-52
2021/12/08 08:25:51;;;;;;;2.88;2.58;;;;;;;;;;5080548;28;20048;-54
2021/12/08 08:28:18;;;;;;;2.10;1.95;;;;;;;;;;5080285;28;20119;-55
2021/12/08 08:30:49;;;;;;;2.90;2.30;;;;;;;;;;5075239;28;20043;-53
2021/12/08 08:33:16;;;;;;;5.10;2.70;;;;;;;;;;5079815;28;20032;-55
2021/12/08 08:35:51;;;;;;;1.90;1.80;;;;;;;;;;5077273;28;20024;-54
2021/12/08 08:38:30;;;;;;;2.38;2.17;;;;;;;;;;5074638;28;20413;-47
2021/12/08 08:41:02;;;;;;;2.50;2.30;;;;;;;;;;5076538;28;20040;-54
2021/12/08 08:43:29;;;;;;;2.60;2.40;;;;;;;;;;5072941;28;20535;-51
2021/12/08 08:45:58;;;;;;;2.50;2.22;;;;;;;;;;5076973;28;20039;-50
2021/12/08 08:48:28;;;;;;;2.55;2.35;;;;;;;;;;5075268;28;20031;-54
2021/12/08 08:51:00;;;;;;;2.28;2.17;;;;;;;;;;5084081;28;20043;-54
2021/12/08 08:53:30;;;;;;;4.65;4.25;;;;;;;;;;5078060;28;20047;-55
2021/12/08 08:56:13;;;;;;;8.43;3.60;;;;;;;;;;5076468;28;20610;-55
2021/12/08 08:58:43;;;;;;;4.05;3.60;;;;;;;;;;5078587;28;20043;-50
2021/12/08 09:01:13;;;;;;;2.63;2.42;;;;;;;;;;5078290;28;20491;-51
2021/12/08 09:03:41;;;;;;;2.80;2.60;;;;;;;;;;5083290;28;20374;-55
2021/12/08 09:06:11;;;;;;;5.43;2.83;;;;;;;;;;5085049;28;20064;-52
2021/12/08 09:08:38;;;;;;;4.63;4.20;;;;;;;;;;5080959;28;20032;-53
2021/12/08 09:11:25;;;;;;;3.42;3.13;;;;;;;;;;5082512;28;20074;-55
2021/12/08 09:14:16;;;;;;;5.63;3.58;;;;;;;;;;5077649;28;20090;-54
2021/12/08 09:16:47;;;;;;;4.00;3.60;;;;;;;;;;5071951;28;20051;-55
2021/12/08 09:19:20;;;;;;;7.57;4.13;;;;;;;;;;5078793;28;20045;-55
2021/12/08 09:22:05;;;;;;;4.60;3.88;;;;;;;;;;5080621;28;20115;-55
2021/12/08 09:24:45;;;;;;;3.42;3.13;;;;;;;;;;5073104;28;20055;-55
2021/12/08 09:27:12;;;;;;;3.38;3.08;;;;;;;;;;5072443;28;20074;-54
2021/12/08 09:29:47;;;;;;;7.38;3.05;;;;;;;;;;5074097;28;20380;-53
2021/12/08 09:32:19;;;;;;;2.70;2.50;;;;;;;;;;5077436;28;20028;-55
2021/12/08 09:34:57;;;;;;;2.90;2.70;;;;;;;;;;5079484;28;20064;-49
2021/12/08 09:37:39;;;;;;;3.83;2.50;;;;;;;;;;5078337;28;20036;-50
2021/12/08 09:40:09;;;;;;;3.00;2.05;;;;;;;;;;5073529;28;20526;-49
2021/12/08 09:42:44;;;;;;;4.07;2.78;;;;;;;;;;5080226;28;20031;-47
2021/12/08 09:45:15;;;;;;;7.00;2.25;;;;;;;;;;5077672;28;20380;-47
2021/12/08 09:47:41;;;;;;;5.25;2.10;;;;;;;;;;5081532;28;20032;-46
2021/12/08 09:50:10;;;;;;;2.45;2.25;;;;;;;;;;5079728;28;20032;-47
2021/12/08 09:52:36;;;;;;;3.85;2.25;;;;;;;;;;5075553;28;20469;-47
2021/12/08 09:55:04;;;;;;;4.22;2.30;;;;;;;;;;5072832;28;20027;-47
2021/12/08 09:57:30;;;;;;;3.85;2.33;;;;;;;;;;5073221;28;20039;-47
2021/12/08 09:59:57;;;;;;;2.70;1.63;;;;;;;;;;5079498;28;20029;-47
2021/12/08 10:02:32;;;;;;;8.32;5.60;;;;;;;;;;5074866;28;20024;-48
2021/12/08 10:05:00;;;;;;;2.55;2.15;;;;;;;;;;5073038;28;20036;-47
2021/12/08 10:07:27;;;;;;;1.83;1.30;;;;;;;;;;5074717;28;20029;-47
2021/12/08 10:09:53;;;;;;;2.95;1.92;;;;;;;;;;5075949;28;20089;-47
2021/12/08 10:12:20;;;;;;;1.92;1.73;;;;;;;;;;5076448;28;20052;-49
2021/12/08 10:14:46;;;;;;;3.40;1.65;;;;;;;;;;5082695;28;20070;-50
2021/12/08 10:17:14;;;;;;;3.03;2.50;;;;;;;;;;5076374;28;20500;-48
2021/12/08 10:19:42;;;;;;;8.20;2.80;;;;;;;;;;5072985;28;20067;-47
2021/12/08 10:22:21;;;;;;;3.63;1.40;;;;;;;;;;5075926;28;20408;-48
2021/12/08 10:25:17;;;;;;;2.70;1.42;;;;;;;;;;5075579;28;20050;-46
2021/12/08 10:28:09;;;;;;;4.90;2.65;;;;;;;;;;5076679;28;20032;-46
2021/12/08 10:30:41;;;;;;;40.63;28.02;;;;;;;;;;5077797;28;20030;-46
2021/12/08 10:33:38;;;;;;;2.53;2.33;;;;;;;;;;5081278;28;20376;-46
2021/12/08 10:36:19;;;;;;;5.25;2.47;;;;;;;;;;5072923;28;20032;-48
2021/12/08 10:38:45;;;;;;;2.65;2.42;;;;;;;;;;5079274;28;20044;-50
2021/12/08 10:41:11;;;;;;;2.53;2.17;;;;;;;;;;5078050;28;20041;-46
2021/12/08 10:43:37;;;;;;;5.93;3.22;;;;;;;;;;5074165;28;20099;-48
2021/12/08 10:46:07;;;;;;;3.55;2.50;;;;;;;;;;5077633;28;20039;-47
2021/12/08 10:48:37;;;;;;;2.47;2.22;;;;;;;;;;5073597;28;20038;-49
2021/12/08 10:54:26;;;;;;;3.05;2.38;;;;;;;;;;5084181;28;20032;-46
2021/12/08 10:56:59;;;;;;;2.63;2.42;;;;;;;;;;5076249;28;20046;-51
2021/12/08 10:59:46;;;;;;;0.98;0.88;;;;;;;;;;5077186;28;20053;-48
2021/12/08 11:02:35;;;;;;;1.58;1.48;;;;;;;;;;5082646;28;20068;-47
2021/12/08 11:05:02;;;;;;;2.92;1.60;;;;;;;;;;5081815;28;20032;-48
2021/12/08 11:07:28;;;;;;;2.17;1.38;;;;;;;;;;5086380;28;20512;-48
2021/12/08 11:09:53;;;;;;;1.98;1.60;;;;;;;;;;5084251;28;20044;-49
2021/12/08 11:12:21;;;;;;;2.38;2.17;;;;;;;;;;5080400;28;20078;-49
2021/12/08 11:14:50;;;;;;;3.05;1.95;;;;;;;;;;5079985;28;20607;-47
2021/12/08 11:17:30;;;;;;;6.32;2.72;;;;;;;;;;5079173;28;20047;-50
2021/12/08 11:20:19;;;;;;;1.98;1.60;;;;;;;;;;5077883;28;20047;-47
2021/12/08 11:22:59;;;;;;;4.22;1.00;;;;;;;;;;5076736;28;20789;-46
2021/12/08 11:25:52;;;;;;;1.08;0.95;;;;;;;;;;5087796;28;20056;-48
2021/12/08 11:28:29;;;;;;;2.92;0.98;;;;;;;;;;5072024;28;20496;-50
2021/12/08 11:30:58;;;;;;;4.78;0.90;;;;;;;;;;5078154;28;20024;-47
2021/12/08 11:33:24;;;;;;;0.77;0.77;;;;;;;;;;5078878;28;20096;-49
2021/12/08 11:36:15;;;;;;;1.75;1.38;;;;;;;;;;5077801;28;20107;-50
2021/12/08 11:38:42;;;;;;;4.72;2.63;;;;;;;;;;5076595;28;20029;-46
2021/12/08 11:41:24;;;;;;;2.65;2.42;;;;;;;;;;5073743;28;20464;-51
2021/12/08 11:43:58;;;;;;;4.60;2.93;;;;;;;;;;5073764;28;20132;-48
2021/12/08 11:46:26;;;;;;;4.20;3.33;;;;;;;;;;5083670;28;20029;-50
2021/12/08 11:49:06;;;;;;;4.78;2.92;;;;;;;;;;5079892;28;20025;-48
2021/12/08 11:51:43;;;;;;;12.60;6.63;;;;;;;;;;5080727;28;20102;-50
2021/12/08 11:54:31;;;;;;;11.05;5.10;;;;;;;;;;5082904;28;20036;-46
2021/12/08 11:57:12;;;;;;;10.27;4.18;;;;;;;;;;5076376;28;20064;-50
2021/12/08 12:00:24;;;;;;;8.63;4.65;;;;;;;;;;5078401;28;20101;-51
2021/12/08 12:02:58;;;;;;;9.68;4.07;;;;;;;;;;5074146;28;20032;-46
2021/12/08 12:05:33;;;;;;;3.40;2.88;;;;;;;;;;5079975;28;20033;-48
2021/12/08 12:07:59;;;;;;;3.97;2.80;;;;;;;;;;5078807;28;20047;-48
2021/12/08 12:10:30;;;;;;;5.80;4.07;;;;;;;;;;5080570;28;20028;-51
2021/12/08 12:12:57;;;;;;;3.67;2.60;;;;;;;;;;5078221;28;20076;-48
2021/12/08 12:15:24;;;;;;;2.78;1.90;;;;;;;;;;5074497;28;20142;-49
2021/12/08 12:17:50;;;;;;;4.10;1.83;;;;;;;;;;5084767;28;20048;-47
2021/12/08 12:20:30;;;;;;;2.72;1.83;;;;;;;;;;5079815;28;20039;-46
2021/12/08 12:23:15;;;;;;;4.32;1.77;;;;;;;;;;5076956;28;20054;-46
2021/12/08 12:26:04;;;;;;;2.95;1.92;;;;;;;;;;5079176;28;20056;-46
2021/12/08 12:28:42;;;;;;;1.83;1.50;;;;;;;;;;5076480;28;20047;-51
2021/12/08 12:31:40;;;;;;;1.90;1.70;;;;;;;;;;5082379;28;20078;-48
2021/12/08 12:34:44;;;;;;;1.83;1.48;;;;;;;;;;5080445;28;20034;-48
2021/12/08 12:37:13;;;;;;;5.75;2.67;;;;;;;;;;5081262;28;20020;-49
2021/12/08 12:39:54;;;;;;;3.15;2.10;;;;;;;;;;5078619;28;20485;-48
2021/12/08 12:42:21;;;;;;;4.43;1.98;;;;;;;;;;5080839;28;20111;-52
2021/12/08 12:45:00;;;;;;;3.70;1.92;;;;;;;;;;5079855;28;20551;-47
2021/12/08 12:47:30;;;;;;;4.72;1.65;;;;;;;;;;5073701;28;20032;-47
2021/12/08 12:50:21;;;;;;;2.78;2.08;;;;;;;;;;5075864;28;20020;-54
2021/12/08 12:52:50;;;;;;;2.10;1.92;;;;;;;;;;5082464;28;20032;-47
2021/12/08 12:55:21;;;;;;;2.25;2.10;;;;;;;;;;5083335;28;20032;-48
2021/12/08 12:58:05;;;;;;;1.90;1.80;;;;;;;;;;5077551;28;20120;-47
2021/12/08 13:00:31;;;;;;;3.33;3.10;;;;;;;;;;5072284;28;20029;-48
2021/12/08 13:02:57;;;;;;;3.53;1.75;;;;;;;;;;5079547;28;20025;-53
2021/12/08 13:05:50;;;;;;;1.63;1.52;;;;;;;;;;5080551;28;20031;-47
2021/12/08 13:08:36;;;;;;;1.33;1.23;;;;;;;;;;5079283;28;20045;-47
2021/12/08 13:11:35;;;;;;;1.55;1.45;;;;;;;;;;5061156;28;20032;-48
2021/12/08 13:14:03;;;;;;;3.15;2.85;;;;;;;;;;5077446;28;20445;-46
2021/12/08 13:16:34;;;;;;;4.18;2.70;;;;;;;;;;5073837;28;20020;-51
2021/12/08 13:19:05;;;;;;;2.90;2.70;;;;;;;;;;5078388;28;20032;-46
2021/12/08 13:21:44;;;;;;;2.50;2.05;;;;;;;;;;5072472;28;20028;-49
2021/12/08 13:24:34;;;;;;;1.77;1.67;;;;;;;;;;5075505;28;20079;-47
2021/12/08 13:27:09;;;;;;;1.50;1.40;;;;;;;;;;5078483;28;20020;-49
2021/12/08 13:29:46;;;;;;;2.25;1.55;;;;;;;;;;5073452;28;20029;-47
2021/12/08 13:32:16;;;;;;;1.92;1.80;;;;;;;;;;5073393;28;20060;-46
2021/12/08 13:34:59;;;;;;;3.38;2.42;;;;;;;;;;5079618;28;20024;-47
2021/12/08 13:37:31;;;;;;;1.92;1.50;;;;;;;;;;5073719;28;20507;-47
2021/12/08 13:40:09;;;;;;;3.13;1.75;;;;;;;;;;5079108;28;20027;-51
2021/12/08 13:42:54;;;;;;;3.10;1.40;;;;;;;;;;5082681;28;20404;-48
2021/12/08 13:45:20;;;;;;;3.85;2.00;;;;;;;;;;5076657;28;20024;-47
2021/12/08 13:47:48;;;;;;;2.10;1.65;;;;;;;;;;5080527;28;20040;-46
2021/12/08 13:50:23;;;;;;;2.90;2.03;;;;;;;;;;5078183;28;20438;-48
2021/12/08 13:52:54;;;;;;;3.58;1.95;;;;;;;;;;5081465;28;20024;-48
2021/12/08 13:55:23;;;;;;;5.95;2.10;;;;;;;;;;5071781;28;20024;-48
2021/12/08 13:57:51;;;;;;;5.63;1.50;;;;;;;;;;5080547;28;20702;-49
2021/12/08 14:00:17;;;;;;;4.40;2.00;;;;;;;;;;5083849;28;20059;-51
2021/12/08 14:02:50;;;;;;;2.95;2.55;;;;;;;;;;5075473;28;20465;-48
2021/12/08 14:05:29;;;;;;;1.17;1.10;;;;;;;;;;5077801;28;20064;-46
2021/12/08 14:07:58;;;;;;;5.55;1.35;;;;;;;;;;5085534;28;20024;-46
2021/12/08 14:10:27;;;;;;;2.00;1.75;;;;;;;;;;5076814;28;20029;-49
2021/12/08 14:12:57;;;;;;;6.05;1.27;;;;;;;;;;5075831;28;20112;-52
2021/12/08 14:15:32;;;;;;;7.13;1.70;;;;;;;;;;5075289;28;20089;-47
2021/12/08 14:18:14;;;;;;;1.88;1.40;;;;;;;;;;5076872;28;20078;-48
2021/12/08 14:20:42;;;;;;;4.40;1.75;;;;;;;;;;5074718;28;20039;-46
2021/12/08 14:23:09;;;;;;;2.00;1.52;;;;;;;;;;5077592;28;20492;-47
2021/12/08 14:25:43;;;;;;;4.72;1.60;;;;;;;;;;5082142;28;20036;-48
2021/12/08 14:28:40;;;;;;;9.35;2.72;;;;;;;;;;5079874;28;20538;-48
2021/12/08 14:31:15;;;;;;;4.75;3.33;;;;;;;;;;5073332;28;20163;-47
2021/12/08 14:33:51;;;;;;;6.70;3.92;;;;;;;;;;5079373;28;20458;-48
2021/12/08 14:36:27;;;;;;;8.70;4.30;;;;;;;;;;5080803;28;20024;-52
2021/12/08 14:38:54;;;;;;;6.00;4.22;;;;;;;;;;5078878;28;20039;-47
2021/12/08 14:41:24;;;;;;;8.07;4.57;;;;;;;;;;5081347;28;20020;-50
2021/12/08 14:43:52;;;;;;;9.77;5.68;;;;;;;;;;5079515;28;20357;-48
2021/12/08 14:46:21;;;;;;;11.30;5.97;;;;;;;;;;5083562;28;20031;-51
2021/12/08 14:49:04;;;;;;;12.90;6.18;;;;;;;;;;5075796;28;20035;-48
2021/12/08 14:51:32;;;;;;;11.95;5.78;;;;;;;;;;5076444;28;20174;-48
2021/12/08 14:54:14;;;;;;;10.68;5.93;;;;;;;;;;5079043;28;20078;-48
2021/12/08 14:56:41;;;;;;;16.20;7.68;;;;;;;;;;5080148;28;20070;-48
2021/12/08 14:59:08;;;;;;;23.52;8.07;;;;;;;;;;5077889;28;20119;-46
2021/12/08 15:01:35;;;;;;;16.77;7.20;;;;;;;;;;5081943;28;20024;-53
2021/12/08 15:04:01;;;;;;;10.48;5.60;;;;;;;;;;5077101;28;20020;-52
2021/12/08 15:06:27;;;;;;;11.23;5.40;;;;;;;;;;5082008;28;20028;-50
2021/12/08 15:08:53;;;;;;;10.38;5.32;;;;;;;;;;5079812;28;20025;-51
2021/12/08 15:11:21;;;;;;;9.48;5.15;;;;;;;;;;5078533;28;20158;-48
2021/12/08 15:13:48;;;;;;;9.98;5.70;;;;;;;;;;5086513;28;20043;-48
2021/12/08 15:16:20;;;;;;;10.40;5.68;;;;;;;;;;5085067;28;20028;-46
2021/12/08 15:18:50;;;;;;;10.82;6.03;;;;;;;;;;5078871;28;20044;-46
2021/12/08 15:21:25;;;;;;;11.15;5.90;;;;;;;;;;5077378;28;20028;-49
2021/12/08 15:24:01;;;;;;;12.90;7.05;;;;;;;;;;5081504;28;20036;-48
2021/12/08 15:26:27;;;;;;;14.57;7.00;;;;;;;;;;5080749;28;20385;-50
2021/12/08 15:28:53;;;;;;;14.90;6.55;;;;;;;;;;5080403;28;20032;-46
2021/12/08 15:31:38;;;;;;;7.10;4.47;;;;;;;;;;5083722;28;20036;-46
2021/12/08 15:34:19;;;;;;;9.15;5.43;;;;;;;;;;5077116;28;20110;-48
2021/12/08 15:37:16;;;;;;;14.48;7.07;;;;;;;;;;5077361;28;20118;-48
2021/12/08 15:39:44;;;;;;;13.18;7.07;;;;;;;;;;5057961;28;20035;-45
2021/12/08 15:42:13;;;;;;;13.13;6.00;;;;;;;;;;5078452;28;20021;-52
2021/12/08 15:44:40;;;;;;;5.95;3.85;;;;;;;;;;5079301;28;20073;-46
2021/12/08 15:47:10;;;;;;;6.93;3.63;;;;;;;;;;5078880;28;20431;-51
2021/12/08 15:49:39;;;;;;;4.57;3.08;;;;;;;;;;5079855;28;20020;-49
2021/12/08 15:52:17;;;;;;;6.03;2.90;;;;;;;;;;5078934;28;20052;-48
2021/12/08 15:54:45;;;;;;;3.42;3.13;;;;;;;;;;5075992;28;20481;-47
2021/12/08 15:57:16;;;;;;;3.78;3.38;;;;;;;;;;5077177;28;20031;-48